createdAt,value
2019-04-16T00:01:02.130Z,8.00
2019-04-16T00:03:32.016Z,8.20
2019-04-16T00:06:05.787Z,8.87
2019-04-16T00:08:42.694Z,7.40
2019-04-16T00:11:16.931Z,7.12
2019-04-16T00:13:57.099Z,7.00
2019-04-16T00:16:26.709Z,7.70
2019-04-16T00:18:58.221Z,7.67
2019-04-16T00:21:41.850Z,8.30
2019-04-16T00:27:15.913Z,8.23
2019-04-16T00:29:45.424Z,7.20
2019-04-16T00:32:18.343Z,8.77
2019-04-16T00:34:47.698Z,6.53
2019-04-16T00:37:20.534Z,8.75
2019-04-16T00:39:49.834Z,8.17
2019-04-16T00:42:20.629Z,7.97
2019-04-16T00:44:49.982Z,7.10
2019-04-16T00:47:20.034Z,7.80
2019-04-16T00:49:49.871Z,7.87
2019-04-16T00:52:19.917Z,8.20
2019-04-16T00:54:49.552Z,7.40
2019-04-16T00:57:19.073Z,7.57
2019-04-16T00:59:48.480Z,7.03
2019-04-16T01:02:18.099Z,7.80
2019-04-16T01:04:47.734Z,7.40
2019-04-16T01:07:18.488Z,6.93
2019-04-16T01:09:47.900Z,7.27
2019-04-16T01:12:17.610Z,7.80
2019-04-16T01:14:47.449Z,6.93
2019-04-16T01:17:16.831Z,7.50
2019-04-16T01:19:46.475Z,7.28
2019-04-16T01:22:16.786Z,7.50
2019-04-16T01:24:46.522Z,6.83
2019-04-16T01:27:16.848Z,7.43
2019-04-16T01:29:46.492Z,7.10
2019-04-16T01:32:19.909Z,6.73
2019-04-16T01:35:06.598Z,7.80
2019-04-16T01:37:56.578Z,7.10
2019-04-16T01:40:29.693Z,6.37
2019-04-16T01:42:59.065Z,6.57
2019-04-16T01:45:29.775Z,6.70
2019-04-16T01:47:59.873Z,7.90
2019-04-16T01:50:29.232Z,6.97
2019-04-16T01:52:59.287Z,6.10
2019-04-16T01:55:28.964Z,6.73
2019-04-16T01:57:59.658Z,6.53
2019-04-16T02:00:30.241Z,7.27
2019-04-16T02:02:59.891Z,5.60
2019-04-16T02:05:29.198Z,5.53
2019-04-16T02:07:59.247Z,6.73
2019-04-16T02:10:29.602Z,7.08
2019-04-16T02:12:59.373Z,6.50
2019-04-16T02:15:28.992Z,7.00
2019-04-16T02:17:59.539Z,6.40
2019-04-16T02:20:29.090Z,7.00
2019-04-16T02:22:58.792Z,5.50
2019-04-16T02:25:28.144Z,6.87
2019-04-16T02:27:57.872Z,6.40
2019-04-16T02:30:27.329Z,5.33
2019-04-16T02:32:56.961Z,6.30
2019-04-16T02:35:26.896Z,6.78
2019-04-16T02:37:56.259Z,6.30
2019-04-16T02:40:25.777Z,5.97
2019-04-16T02:42:55.146Z,6.17
2019-04-16T02:45:25.960Z,6.50
2019-04-16T02:47:55.419Z,5.40
2019-04-16T02:50:32.009Z,7.20
2019-04-16T02:53:03.473Z,6.03
2019-04-16T02:55:35.011Z,6.30
2019-04-16T02:58:06.294Z,6.20
2019-04-16T03:00:37.742Z,7.30
2019-04-16T03:03:08.753Z,6.50
2019-04-16T03:05:40.203Z,7.27
2019-04-16T03:08:15.396Z,6.57
2019-04-16T03:10:45.404Z,7.17
2019-04-16T03:13:15.279Z,7.80
2019-04-16T03:15:46.494Z,7.07
2019-04-16T03:18:17.531Z,3.63
2019-04-16T03:20:46.889Z,6.90
2019-04-16T03:23:17.150Z,6.47
2019-04-16T03:25:46.495Z,6.50
2019-04-16T03:28:16.902Z,6.10
2019-04-16T03:30:46.300Z,7.13
2019-04-16T03:33:16.527Z,7.40
2019-04-16T03:35:46.027Z,6.27
2019-04-16T03:38:15.649Z,7.33
2019-04-16T03:40:45.045Z,6.63
2019-04-16T03:43:14.403Z,6.30
2019-04-16T03:45:43.913Z,5.70
2019-04-16T03:48:13.534Z,6.10
2019-04-16T03:50:42.885Z,6.47
2019-04-16T03:53:16.653Z,4.53
2019-04-16T03:55:44.268Z,6.37
2019-04-16T03:58:13.976Z,7.37
2019-04-16T04:00:44.132Z,6.77
2019-04-16T04:03:15.307Z,7.60
2019-04-16T04:05:46.540Z,7.30
2019-04-16T04:08:17.897Z,7.57
2019-04-16T04:10:48.825Z,7.27
2019-04-16T04:13:18.864Z,7.20
2019-04-16T04:15:49.789Z,6.83
2019-04-16T04:18:19.298Z,7.53
2019-04-16T04:20:50.755Z,6.80
2019-04-16T04:23:20.092Z,7.80
2019-04-16T04:25:49.913Z,6.95
2019-04-16T04:28:20.549Z,6.93
2019-04-16T04:30:49.956Z,6.57
2019-04-16T04:33:41.709Z,6.70
2019-04-16T04:36:10.304Z,6.22
2019-04-16T04:38:40.881Z,6.33
2019-04-16T04:41:10.455Z,6.37
2019-04-16T04:43:40.117Z,5.75
2019-04-16T04:46:14.515Z,6.90
2019-04-16T04:48:41.291Z,7.63
2019-04-16T04:51:11.248Z,6.63
2019-04-16T04:53:40.914Z,7.03
2019-04-16T04:56:12.193Z,7.60
2019-04-16T04:58:41.568Z,5.53
2019-04-16T05:01:13.618Z,7.53
2019-04-16T05:03:47.024Z,7.80
2019-04-16T05:06:17.338Z,6.50
2019-04-16T05:08:47.043Z,7.07
2019-04-16T05:11:16.973Z,6.10
2019-04-16T05:13:46.450Z,6.90
2019-04-16T05:16:16.051Z,7.43
2019-04-16T05:18:46.352Z,7.20
2019-04-16T05:21:18.934Z,5.60
2019-04-16T05:23:47.073Z,6.03
2019-04-16T05:26:16.475Z,7.57
2019-04-16T05:28:46.092Z,6.72
2019-04-16T05:31:15.434Z,5.57
2019-04-16T05:33:45.077Z,7.00
2019-04-16T05:36:15.467Z,6.40
2019-04-16T05:38:45.185Z,5.87
2019-04-16T05:41:20.772Z,6.83
2019-04-16T05:43:46.580Z,7.17
2019-04-16T05:46:16.155Z,7.13
2019-04-16T05:48:45.521Z,7.50
2019-04-16T05:51:15.112Z,7.17
2019-04-16T05:53:46.136Z,5.70
2019-04-16T05:56:17.129Z,7.07
2019-04-16T05:58:46.517Z,7.50
2019-04-16T06:01:17.809Z,7.60
2019-04-16T06:03:52.994Z,6.57
2019-04-16T06:06:20.361Z,7.10
2019-04-16T06:08:50.118Z,7.45
2019-04-16T06:11:28.549Z,8.43
2019-04-16T06:14:07.704Z,7.10
2019-04-16T06:16:38.888Z,7.57
2019-04-16T06:19:19.755Z,6.07
2019-04-16T06:22:02.893Z,6.50
2019-04-16T06:24:42.868Z,6.90
2019-04-16T06:27:13.953Z,6.87
2019-04-16T06:29:47.010Z,4.40
2019-04-16T06:32:35.917Z,7.00
2019-04-16T06:35:07.188Z,6.57
2019-04-16T06:37:47.119Z,7.63
2019-04-16T06:40:34.321Z,6.90
2019-04-16T06:43:05.635Z,6.90
2019-04-16T06:45:38.009Z,6.05
2019-04-16T06:48:12.890Z,6.50
2019-04-16T06:50:44.618Z,7.53
2019-04-16T06:53:15.949Z,8.10
2019-04-16T06:55:59.427Z,7.07
2019-04-16T06:58:30.729Z,7.77
2019-04-16T07:01:21.971Z,7.63
2019-04-16T07:03:58.443Z,7.50
2019-04-16T07:06:39.268Z,6.23
2019-04-16T07:09:23.432Z,6.90
2019-04-16T07:11:55.137Z,4.95
2019-04-16T07:14:26.764Z,7.80
2019-04-16T07:16:59.780Z,5.40
2019-04-16T07:19:27.594Z,7.20
2019-04-16T07:21:58.083Z,7.60
2019-04-16T07:24:30.703Z,8.20
2019-04-16T07:27:00.134Z,6.22
2019-04-16T07:29:32.872Z,7.97
2019-04-16T07:32:21.823Z,6.73
2019-04-16T07:34:58.963Z,7.90
2019-04-16T07:37:36.228Z,8.03
2019-04-16T07:40:10.152Z,7.30
2019-04-16T07:42:52.034Z,8.60
2019-04-16T07:45:18.606Z,9.17
2019-04-16T07:48:06.735Z,7.85
2019-04-16T07:50:54.691Z,7.20
2019-04-16T07:53:47.395Z,7.40
2019-04-16T07:56:19.021Z,7.33
2019-04-16T07:58:48.414Z,6.73
2019-04-16T08:01:17.790Z,7.90
2019-04-16T08:03:47.451Z,7.17
2019-04-16T08:06:16.814Z,5.40
2019-04-16T08:08:46.788Z,8.00
2019-04-16T08:11:16.403Z,8.40
2019-04-16T08:13:46.149Z,9.13
2019-04-16T08:16:15.523Z,8.20
2019-04-16T08:18:48.918Z,9.20
2019-04-16T08:21:18.811Z,9.20
2019-04-16T08:23:52.917Z,7.37
2019-04-16T08:26:22.405Z,8.37
2019-04-16T08:28:52.174Z,8.33
2019-04-16T08:31:23.235Z,7.50
2019-04-16T08:33:54.147Z,9.53
2019-04-16T08:36:23.637Z,8.57
2019-04-16T08:38:53.304Z,8.10
2019-04-16T08:41:22.666Z,9.40
2019-04-16T08:43:52.332Z,7.58
2019-04-16T08:46:21.953Z,7.67
2019-04-16T08:48:54.231Z,8.50
2019-04-16T08:51:30.422Z,7.60
2019-04-16T08:53:56.020Z,9.47
2019-04-16T08:56:25.853Z,9.53
2019-04-16T08:58:59.982Z,9.50
2019-04-16T09:01:31.603Z,7.80
2019-04-16T09:04:02.442Z,9.93
2019-04-16T09:06:32.037Z,9.40
2019-04-16T09:09:12.458Z,8.70
2019-04-16T09:11:36.402Z,8.68
2019-04-16T09:14:07.630Z,8.43
2019-04-16T09:16:57.240Z,6.80
2019-04-16T09:19:27.549Z,9.20
2019-04-16T09:21:58.482Z,9.43
2019-04-16T09:24:32.497Z,10.87
2019-04-16T09:27:06.705Z,10.80
2019-04-16T09:29:41.282Z,9.37
2019-04-16T09:32:28.445Z,10.20
2019-04-16T09:35:18.687Z,9.17
2019-04-16T09:37:45.417Z,8.23
2019-04-16T09:40:25.661Z,9.97
2019-04-16T09:42:55.412Z,10.00
2019-04-16T09:45:26.244Z,7.60
2019-04-16T09:47:56.217Z,11.10
2019-04-16T09:50:26.004Z,8.70
2019-04-16T09:52:56.442Z,10.13
2019-04-16T09:55:25.976Z,11.50
2019-04-16T09:57:55.768Z,10.13
2019-04-16T10:00:27.681Z,7.60
2019-04-16T10:02:58.711Z,10.67
2019-04-16T10:05:29.557Z,9.73
2019-04-16T10:07:59.550Z,12.03
2019-04-16T10:10:29.201Z,8.40
2019-04-16T10:12:58.874Z,11.23
2019-04-16T10:15:28.560Z,8.45
2019-04-16T10:17:58.600Z,8.60
2019-04-16T10:20:31.098Z,7.63
2019-04-16T10:23:02.288Z,8.57
2019-04-16T10:25:33.569Z,6.83
2019-04-16T10:28:05.687Z,10.43
2019-04-16T10:30:36.913Z,8.83
2019-04-16T10:33:06.681Z,10.48
2019-04-16T10:35:36.095Z,10.90
2019-04-16T10:38:07.422Z,9.85
2019-04-16T10:40:38.765Z,9.60
2019-04-16T10:43:18.287Z,11.43
2019-04-16T10:45:55.216Z,7.90
2019-04-16T10:48:27.709Z,11.27
2019-04-16T10:51:04.157Z,9.70
2019-04-16T10:53:47.741Z,11.05
2019-04-16T10:56:34.868Z,10.73
2019-04-16T10:59:21.896Z,10.70
2019-04-16T11:01:54.668Z,9.87
2019-04-16T11:04:43.197Z,10.67
2019-04-16T11:07:14.036Z,12.37
2019-04-16T11:09:43.756Z,11.80
2019-04-16T11:12:13.158Z,11.03
2019-04-16T11:14:42.792Z,9.03
2019-04-16T11:17:12.175Z,11.10
2019-04-16T11:19:41.850Z,12.30
2019-04-16T11:22:11.349Z,11.40
2019-04-16T11:24:40.996Z,9.48
2019-04-16T11:27:10.741Z,12.25
2019-04-16T11:29:41.932Z,10.50
2019-04-16T11:32:12.841Z,11.53
2019-04-16T11:34:42.311Z,9.35
2019-04-16T11:37:12.190Z,11.60
2019-04-16T11:39:42.206Z,12.03
2019-04-16T11:42:12.722Z,9.90
2019-04-16T11:44:42.698Z,13.00
2019-04-16T11:47:12.077Z,13.67
2019-04-16T11:49:42.316Z,10.93
2019-04-16T11:52:11.688Z,11.33
2019-04-16T11:54:46.783Z,13.07
2019-04-16T11:57:13.956Z,11.60
2019-04-16T11:59:43.374Z,12.87
2019-04-16T12:02:14.469Z,9.90
2019-04-16T12:04:55.849Z,12.55
2019-04-16T12:07:36.443Z,13.15
2019-04-16T12:10:13.703Z,10.70
2019-04-16T12:12:52.138Z,13.70
2019-04-16T12:15:36.392Z,11.93
2019-04-16T12:18:13.548Z,13.50
2019-04-16T12:20:44.676Z,10.90
2019-04-16T12:23:22.438Z,13.00
2019-04-16T12:26:10.217Z,13.27
2019-04-16T12:29:00.185Z,13.13
2019-04-16T12:31:41.213Z,14.05
2019-04-16T12:34:12.286Z,11.83
2019-04-16T12:36:53.130Z,13.50
2019-04-16T12:39:24.462Z,14.58
2019-04-16T12:42:04.386Z,11.50
2019-04-16T12:44:46.081Z,10.90
2019-04-16T12:47:20.507Z,12.80
2019-04-16T12:49:54.287Z,15.00
2019-04-16T12:52:34.795Z,13.05
2019-04-16T12:55:09.131Z,12.43
2019-04-16T12:57:46.879Z,12.70
2019-04-16T13:00:31.285Z,12.03
2019-04-16T13:03:07.529Z,15.43
2019-04-16T13:05:57.056Z,15.55
2019-04-16T13:08:34.528Z,13.10
2019-04-16T13:11:09.178Z,16.57
2019-04-16T13:13:56.826Z,14.73
2019-04-16T13:16:31.420Z,14.90
2019-04-16T13:19:09.215Z,13.50
2019-04-16T13:21:43.640Z,11.10
2019-04-16T13:24:26.324Z,12.00
2019-04-16T13:27:14.053Z,14.43
2019-04-16T13:29:43.426Z,15.10
2019-04-16T13:32:13.024Z,17.00
2019-04-16T13:34:42.651Z,14.45
2019-04-16T13:37:12.141Z,16.93
2019-04-16T13:39:48.914Z,16.03
2019-04-16T13:42:18.546Z,17.53
2019-04-16T13:44:52.523Z,15.50
2019-04-16T13:47:22.176Z,15.03
2019-04-16T13:50:03.687Z,16.83
2019-04-16T13:52:35.907Z,16.53
2019-04-16T13:55:22.590Z,17.00
2019-04-16T13:58:05.814Z,15.00
2019-04-16T14:00:38.227Z,14.30
2019-04-16T14:03:09.244Z,16.73
2019-04-16T14:05:40.897Z,15.23
2019-04-16T14:08:10.017Z,17.23
2019-04-16T14:10:43.001Z,12.17
2019-04-16T14:13:13.483Z,17.80
2019-04-16T14:15:44.775Z,16.45
2019-04-16T14:18:14.263Z,14.70
2019-04-16T14:20:43.963Z,17.40
2019-04-16T14:23:13.356Z,16.63
2019-04-16T14:25:43.024Z,15.60
2019-04-16T14:28:12.482Z,17.83
2019-04-16T14:30:44.147Z,17.12
2019-04-16T14:33:15.159Z,16.90
2019-04-16T14:35:44.568Z,13.33
2019-04-16T14:38:15.875Z,18.87
2019-04-16T14:40:45.242Z,18.70
2019-04-16T14:43:16.375Z,18.10
2019-04-16T14:45:57.593Z,17.77
2019-04-16T14:48:18.433Z,18.87
2019-04-16T14:50:48.216Z,14.00
2019-04-16T14:53:19.483Z,18.60
2019-04-16T14:56:00.554Z,17.95
2019-04-16T14:58:33.910Z,18.50
2019-04-16T15:01:05.051Z,18.47
2019-04-16T15:03:38.643Z,17.37
2019-04-16T15:06:12.958Z,17.00
2019-04-16T15:08:55.888Z,16.57
2019-04-16T15:11:39.923Z,14.03
2019-04-16T15:14:20.016Z,17.77
2019-04-16T15:16:57.148Z,15.97
2019-04-16T15:19:30.978Z,16.63
2019-04-16T15:22:18.713Z,17.37
2019-04-16T15:25:08.011Z,17.50
2019-04-16T15:27:39.333Z,16.02
2019-04-16T15:30:13.347Z,18.63
2019-04-16T15:32:45.147Z,17.93
2019-04-16T15:35:16.164Z,17.87
2019-04-16T15:37:54.641Z,19.03
2019-04-16T15:40:30.918Z,17.90
2019-04-16T15:43:19.615Z,20.30
2019-04-16T15:45:55.861Z,19.20
2019-04-16T15:48:32.711Z,18.30
2019-04-16T15:51:13.955Z,19.67
2019-04-16T15:53:42.433Z,18.80
2019-04-16T15:56:13.720Z,20.00
2019-04-16T15:58:47.285Z,15.77
2019-04-16T16:01:21.449Z,18.37
2019-04-16T16:03:58.301Z,14.47
2019-04-16T16:06:29.403Z,19.27
2019-04-16T16:09:03.765Z,19.23
2019-04-16T16:11:48.064Z,15.90
2019-04-16T16:14:16.175Z,12.53
2019-04-16T16:16:47.793Z,17.50
2019-04-16T16:19:16.968Z,17.90
2019-04-16T16:21:46.603Z,19.03
2019-04-16T16:24:16.279Z,16.93
2019-04-16T16:26:45.669Z,18.30
2019-04-16T16:29:15.289Z,16.50
2019-04-16T16:31:50.568Z,18.17
2019-04-16T16:34:21.320Z,20.57
2019-04-16T16:36:50.875Z,17.60
2019-04-16T16:39:20.436Z,19.40
2019-04-16T16:41:50.209Z,19.60
2019-04-16T16:44:19.582Z,20.03
2019-04-16T16:46:59.680Z,16.70
2019-04-16T16:49:29.426Z,19.73
2019-04-16T16:52:09.465Z,16.97
2019-04-16T16:54:39.902Z,19.00
2019-04-16T16:57:11.318Z,17.73
2019-04-16T16:59:45.017Z,19.20
2019-04-16T17:02:34.674Z,18.87
2019-04-16T17:05:07.323Z,18.63
2019-04-16T17:07:36.694Z,17.20
2019-04-16T17:10:06.937Z,18.77
2019-04-16T17:12:36.563Z,15.40
2019-04-16T17:15:08.943Z,16.20
2019-04-16T17:17:39.362Z,18.70
2019-04-16T17:20:09.181Z,18.77
2019-04-16T17:22:40.813Z,12.60
2019-04-16T17:25:12.136Z,19.20
2019-04-16T17:27:51.036Z,14.93
2019-04-16T17:30:13.306Z,18.77
2019-04-16T17:32:42.983Z,20.40
2019-04-16T17:35:15.511Z,19.13
2019-04-16T17:37:43.900Z,17.37
2019-04-16T17:40:27.600Z,18.87
2019-04-16T17:43:01.407Z,17.80
2019-04-16T17:45:39.019Z,18.30
2019-04-16T17:48:13.325Z,18.62
2019-04-16T17:50:51.048Z,19.23
2019-04-16T17:53:36.812Z,17.77
2019-04-16T17:56:23.989Z,18.60
2019-04-16T17:58:55.351Z,17.90
2019-04-16T18:01:29.044Z,19.63
2019-04-16T18:04:00.354Z,17.40
2019-04-16T18:06:40.704Z,17.20
2019-04-16T18:09:13.176Z,18.30
2019-04-16T18:11:47.583Z,18.77
2019-04-16T18:14:34.964Z,16.43
2019-04-16T18:17:17.739Z,17.35
2019-04-16T18:20:04.010Z,16.13
2019-04-16T18:22:41.889Z,17.73
2019-04-16T18:25:12.205Z,16.93
2019-04-16T18:27:46.578Z,15.55
2019-04-16T18:30:35.137Z,18.90
2019-04-16T18:33:15.121Z,16.63
2019-04-16T18:36:01.938Z,17.10
2019-04-16T18:38:35.562Z,18.12
2019-04-16T18:41:15.466Z,17.70
2019-04-16T18:44:03.160Z,16.47
2019-04-16T18:46:40.931Z,17.25
2019-04-16T18:49:14.310Z,16.50
2019-04-16T18:51:43.763Z,18.00
2019-04-16T18:54:14.967Z,16.63
2019-04-16T18:56:44.646Z,17.47
2019-04-16T18:59:14.032Z,18.03
2019-04-16T19:01:45.333Z,17.12
2019-04-16T19:04:15.075Z,16.03
2019-04-16T19:06:44.751Z,17.35
2019-04-16T19:09:14.373Z,18.10
2019-04-16T19:11:44.852Z,13.35
2019-04-16T19:14:14.238Z,14.70
2019-04-16T19:16:43.947Z,16.50
2019-04-16T19:19:13.354Z,16.50
2019-04-16T19:21:43.328Z,17.47
2019-04-16T19:24:12.726Z,17.43
2019-04-16T19:26:42.208Z,11.68
2019-04-16T19:29:14.517Z,18.00
2019-04-16T19:31:43.092Z,17.37
2019-04-16T19:34:12.793Z,16.35
2019-04-16T19:36:42.154Z,14.73
2019-04-16T19:39:15.116Z,16.10
2019-04-16T19:41:43.949Z,15.80
2019-04-16T19:44:13.359Z,17.20
2019-04-16T19:46:45.994Z,16.90
2019-04-16T19:49:14.389Z,14.97
2019-04-16T19:51:43.863Z,17.20
2019-04-16T19:54:13.243Z,15.00
2019-04-16T19:56:43.134Z,16.32
2019-04-16T19:59:12.500Z,16.07
2019-04-16T20:01:42.195Z,16.53
2019-04-16T20:04:11.921Z,17.02
2019-04-16T20:06:41.292Z,13.93
2019-04-16T20:09:10.908Z,18.47
2019-04-16T20:11:42.184Z,18.67
2019-04-16T20:14:11.633Z,16.33
2019-04-16T20:16:41.256Z,16.27
2019-04-16T20:19:11.470Z,16.30
2019-04-16T20:21:40.950Z,18.23
2019-04-16T20:24:11.702Z,17.20
2019-04-16T20:26:41.070Z,15.57
2019-04-16T20:29:10.788Z,16.43
2019-04-16T20:31:41.450Z,14.90
2019-04-16T20:34:12.412Z,16.40
2019-04-16T20:36:42.384Z,16.50
2019-04-16T20:39:12.261Z,15.90
2019-04-16T20:41:43.669Z,14.50
2019-04-16T20:44:14.931Z,16.23
2019-04-16T20:46:44.309Z,13.87
2019-04-16T20:49:16.817Z,15.08
2019-04-16T20:51:45.335Z,16.40
2019-04-16T20:54:15.917Z,14.83
2019-04-16T20:56:45.278Z,15.10
2019-04-16T20:59:16.458Z,16.17
2019-04-16T21:01:47.306Z,14.73
2019-04-16T21:04:17.854Z,16.10
2019-04-16T21:06:47.209Z,18.37
2019-04-16T21:09:17.143Z,14.45
2019-04-16T21:11:46.870Z,16.70
2019-04-16T21:14:18.934Z,14.37
2019-04-16T21:16:47.373Z,15.33
2019-04-16T21:19:23.342Z,15.45
2019-04-16T21:21:48.863Z,13.67
2019-04-16T21:24:18.243Z,15.23
2019-04-16T21:26:51.031Z,15.63
2019-04-16T21:29:21.655Z,14.10
2019-04-16T21:31:53.858Z,15.80
2019-04-16T21:34:29.508Z,13.40
2019-04-16T21:37:14.282Z,14.00
2019-04-16T21:39:51.310Z,13.15
2019-04-16T21:42:19.405Z,14.57
2019-04-16T21:44:50.031Z,15.50
2019-04-16T21:47:23.633Z,16.07
2019-04-16T21:49:53.822Z,16.50
2019-04-16T21:52:23.970Z,13.80
2019-04-16T21:54:53.683Z,15.57
2019-04-16T21:57:23.135Z,15.57
2019-04-16T21:59:56.985Z,15.40
2019-04-16T22:02:34.330Z,16.03
2019-04-16T22:05:02.452Z,14.07
2019-04-16T22:07:32.251Z,14.78
2019-04-16T22:10:02.106Z,13.20
2019-04-16T22:12:32.664Z,15.50
2019-04-16T22:15:02.157Z,17.13
2019-04-16T22:17:35.495Z,15.75
2019-04-16T22:20:04.069Z,14.43
2019-04-16T22:22:34.192Z,16.35
2019-04-16T22:25:04.620Z,14.83
2019-04-16T22:27:36.698Z,12.30
2019-04-16T22:30:07.266Z,14.53
2019-04-16T22:32:37.612Z,14.98
2019-04-16T22:35:07.294Z,15.83
2019-04-16T22:37:36.694Z,15.27
2019-04-16T22:40:14.592Z,15.40
2019-04-16T22:43:06.233Z,13.77
2019-04-16T22:45:40.852Z,14.98
2019-04-16T22:48:10.509Z,15.40
2019-04-16T22:50:40.913Z,15.35
2019-04-16T22:53:10.317Z,15.00
2019-04-16T22:55:42.556Z,14.20
2019-04-16T22:58:24.019Z,15.60
2019-04-16T23:00:55.401Z,14.57
2019-04-16T23:03:26.334Z,14.43
2019-04-16T23:05:56.270Z,14.93
2019-04-16T23:08:25.656Z,14.90
2019-04-16T23:10:55.375Z,15.20
2019-04-16T23:13:24.747Z,15.33
2019-04-16T23:15:54.627Z,14.60
2019-04-16T23:18:24.649Z,13.90
2019-04-16T23:20:54.417Z,15.13
2019-04-16T23:23:23.788Z,14.50
2019-04-16T23:25:53.442Z,14.40
2019-04-16T23:28:22.810Z,15.60
2019-04-16T23:30:52.340Z,14.80
2019-04-16T23:33:21.701Z,14.83
2019-04-16T23:35:51.392Z,14.47
2019-04-16T23:38:20.762Z,13.40
2019-04-16T23:40:50.399Z,13.77
2019-04-16T23:43:30.360Z,13.50
2019-04-16T23:46:17.711Z,15.03
2019-04-16T23:48:57.687Z,13.30
2019-04-16T23:51:32.590Z,13.88
2019-04-16T23:54:08.274Z,13.63
2019-04-16T23:56:41.755Z,14.30
2019-04-16T23:59:15.912Z,12.50
